createdAt,value
2023-05-12T00:00:34.261Z,101019.66
2023-05-12T00:03:06.609Z,101021.66
2023-05-12T00:05:38.697Z,101024.53
2023-05-12T00:08:10.589Z,101024.06
2023-05-12T00:10:42.450Z,101016.31
2023-05-12T00:13:15.686Z,101016.84
2023-05-12T00:15:47.474Z,101023.06
2023-05-12T00:18:19.319Z,101025.91
2023-05-12T00:20:51.207Z,101023.41
2023-05-12T00:23:23.193Z,101021.72
2023-05-12T00:25:54.768Z,101027.59
2023-05-12T00:28:27.728Z,101028.78
2023-05-12T00:31:01.794Z,101029.13
2023-05-12T00:33:35.621Z,101024.06
2023-05-12T00:36:08.715Z,101020.72
2023-05-12T00:38:41.251Z,101026.13
2023-05-12T00:41:12.904Z,101024.78
2023-05-12T00:43:45.862Z,101021.25
2023-05-12T00:46:18.231Z,101023.78
2023-05-12T00:48:50.418Z,101033.88
2023-05-12T00:51:22.352Z,101019.75
2023-05-12T00:53:56.407Z,101026.81
2023-05-12T00:56:28.469Z,101029.31
2023-05-12T00:59:01.490Z,101026.47
2023-05-12T01:01:33.285Z,101020.44
2023-05-12T01:04:05.943Z,101027.66
2023-05-12T01:06:49.548Z,101024.13
2023-05-12T01:09:22.302Z,101023.44
2023-05-12T01:11:53.906Z,101032.34
2023-05-12T01:14:27.136Z,101036.22
2023-05-12T01:17:04.012Z,101032.88
2023-05-12T01:19:47.086Z,101043.78
2023-05-12T01:22:19.923Z,101052.88
2023-05-12T01:24:55.924Z,101055.72
2023-05-12T01:27:30.359Z,101055.06
2023-05-12T01:30:05.852Z,101068.00
2023-05-12T01:32:39.369Z,101068.50
2023-05-12T01:35:12.638Z,101074.19
2023-05-12T01:37:44.410Z,101069.31
2023-05-12T01:40:18.040Z,101071.84
2023-05-12T01:42:51.369Z,101072.53
2023-05-12T01:45:23.332Z,101071.53
2023-05-12T01:47:55.199Z,101072.38
2023-05-12T01:50:27.031Z,101078.63
2023-05-12T01:52:58.920Z,101071.38
2023-05-12T01:55:30.781Z,101077.59
2023-05-12T01:58:03.960Z,101083.81
2023-05-12T02:00:35.780Z,101081.44
2023-05-12T02:03:07.788Z,101071.53
2023-05-12T02:05:39.363Z,101078.63
2023-05-12T02:08:11.221Z,101087.69
2023-05-12T02:10:43.099Z,101080.06
2023-05-12T02:13:16.349Z,101079.56
2023-05-12T02:15:48.120Z,101083.09
2023-05-12T02:18:20.053Z,101086.13
2023-05-12T02:20:51.891Z,101085.63
2023-05-12T02:23:23.858Z,101082.94
2023-05-12T02:25:55.658Z,101076.22
2023-05-12T02:28:28.677Z,101074.53
2023-05-12T02:31:00.525Z,101072.69
2023-05-12T02:33:32.445Z,101075.56
2023-05-12T02:36:04.364Z,101076.56
2023-05-12T02:38:36.367Z,101071.84
2023-05-12T02:41:08.079Z,101073.69
2023-05-12T02:43:41.032Z,101064.63
2023-05-12T02:46:12.882Z,101066.47
2023-05-12T02:48:44.705Z,101069.34
2023-05-12T02:51:16.660Z,101063.78
2023-05-12T02:53:48.461Z,101059.75
2023-05-12T02:56:20.729Z,101074.53
2023-05-12T02:58:53.709Z,101067.16
2023-05-12T03:01:25.662Z,101071.00
2023-05-12T03:03:57.481Z,101078.03
2023-05-12T03:06:30.377Z,101065.63
2023-05-12T03:09:02.228Z,101071.84
2023-05-12T03:11:34.109Z,101060.41
2023-05-12T03:14:07.264Z,101068.47
2023-05-12T03:16:39.118Z,101066.47
2023-05-12T03:19:11.162Z,101075.88
2023-05-12T03:21:42.986Z,101077.72
2023-05-12T03:24:14.944Z,101086.78
2023-05-12T03:26:46.946Z,101082.94
2023-05-12T03:29:20.184Z,101075.19
2023-05-12T03:31:52.041Z,101079.72
2023-05-12T03:34:23.985Z,101081.56
2023-05-12T03:36:55.801Z,101075.19
2023-05-12T03:39:27.796Z,101075.19
2023-05-12T03:41:59.564Z,101073.19
2023-05-12T03:44:32.506Z,101078.56
2023-05-12T03:47:04.443Z,101085.63
2023-05-12T03:49:36.136Z,101096.84
2023-05-12T03:52:07.965Z,101101.56
2023-05-12T03:54:39.860Z,101102.72
2023-05-12T03:57:13.022Z,101095.34
2023-05-12T03:59:46.470Z,101102.56
2023-05-12T04:02:18.402Z,101104.06
2023-05-12T04:04:50.219Z,101091.66
2023-05-12T04:07:22.080Z,101099.72
2023-05-12T04:09:54.005Z,101096.34
2023-05-12T04:12:25.805Z,101109.09
2023-05-12T04:14:59.408Z,101104.72
2023-05-12T04:17:31.864Z,101108.06
2023-05-12T04:20:04.179Z,101106.41
2023-05-12T04:22:35.711Z,101122.53
2023-05-12T04:25:07.651Z,101118.69
2023-05-12T04:27:39.570Z,101121.38
2023-05-12T04:30:13.141Z,101125.03
2023-05-12T04:32:44.996Z,101130.41
2023-05-12T04:35:17.729Z,101129.56
2023-05-12T04:37:50.093Z,101132.94
2023-05-12T04:40:22.266Z,101127.91
2023-05-12T04:42:53.983Z,101126.72
2023-05-12T04:45:26.993Z,101129.28
2023-05-12T04:47:58.907Z,101127.56
2023-05-12T04:50:30.828Z,101140.84
2023-05-12T04:53:02.669Z,101132.78
2023-05-12T04:55:34.577Z,101145.22
2023-05-12T04:58:06.175Z,101147.91
2023-05-12T05:00:39.441Z,101151.75
2023-05-12T05:03:11.558Z,101150.75
2023-05-12T05:05:43.555Z,101147.91
2023-05-12T05:08:15.520Z,101148.06
2023-05-12T05:10:47.351Z,101148.75
2023-05-12T05:13:19.125Z,101158.31
2023-05-12T05:15:56.976Z,101157.47
2023-05-12T05:18:29.139Z,101154.13
2023-05-12T05:21:01.329Z,101156.66
2023-05-12T05:23:33.451Z,101158.16
2023-05-12T05:26:05.333Z,101161.69
2023-05-12T05:28:37.318Z,101165.75
2023-05-12T05:31:14.424Z,101169.09
2023-05-12T05:33:46.134Z,101178.00
2023-05-12T05:36:18.020Z,101177.66
2023-05-12T05:38:49.928Z,101179.66
2023-05-12T05:41:22.735Z,101178.66
2023-05-12T05:43:54.627Z,101185.03
2023-05-12T05:46:27.820Z,101186.38
2023-05-12T05:48:59.679Z,101180.00
2023-05-12T05:51:31.579Z,101187.75
2023-05-12T05:54:03.438Z,101191.13
2023-05-12T05:56:35.979Z,101197.84
2023-05-12T05:59:07.880Z,101191.13
2023-05-12T06:01:40.915Z,101186.91
2023-05-12T06:04:12.814Z,101199.34
2023-05-12T06:06:45.195Z,101201.38
2023-05-12T06:09:17.055Z,101198.50
2023-05-12T06:11:48.990Z,101203.53
2023-05-12T06:14:20.785Z,101201.53
2023-05-12T06:16:54.025Z,101203.22
2023-05-12T06:19:25.629Z,101198.34
2023-05-12T06:21:58.016Z,101206.59
2023-05-12T06:24:29.824Z,101218.19
2023-05-12T06:27:01.821Z,101214.13
2023-05-12T06:29:33.559Z,101216.72
2023-05-12T06:32:07.019Z,101221.25
2023-05-12T06:34:38.911Z,101214.31
2023-05-12T06:37:10.899Z,101218.06
2023-05-12T06:39:42.513Z,101229.47
2023-05-12T06:42:14.466Z,101221.41
2023-05-12T06:44:46.640Z,101224.47
2023-05-12T06:47:20.338Z,101233.03
2023-05-12T06:49:52.195Z,101238.25
2023-05-12T06:52:24.777Z,101237.91
2023-05-12T06:54:56.315Z,101231.38
2023-05-12T06:57:28.165Z,101235.56
2023-05-12T07:00:00.548Z,101234.25
2023-05-12T07:02:33.687Z,101224.13
2023-05-12T07:05:05.562Z,101232.22
2023-05-12T07:07:37.396Z,101231.72
2023-05-12T07:10:11.622Z,101231.38
2023-05-12T07:12:43.719Z,101238.13
2023-05-12T07:15:15.930Z,101241.97
2023-05-12T07:17:49.181Z,101232.56
2023-05-12T07:20:21.013Z,101243.00
2023-05-12T07:22:54.671Z,101244.34
2023-05-12T07:25:26.595Z,101232.91
2023-05-12T07:27:58.472Z,101232.41
2023-05-12T07:30:30.163Z,101238.09
2023-05-12T07:33:03.477Z,101241.13
2023-05-12T07:35:35.136Z,101232.72
2023-05-12T07:38:09.430Z,101235.72
2023-05-12T07:40:41.063Z,101238.59
2023-05-12T07:43:13.054Z,101244.16
2023-05-12T07:45:45.079Z,101245.47
2023-05-12T07:48:18.048Z,101238.56
2023-05-12T07:50:49.857Z,101238.72
2023-05-12T07:53:22.020Z,101242.56
2023-05-12T07:55:53.581Z,101244.78
2023-05-12T07:58:25.477Z,101252.34
2023-05-12T08:01:00.011Z,101250.47
2023-05-12T08:03:33.011Z,101249.59
2023-05-12T08:06:05.852Z,101245.34
2023-05-12T08:08:37.668Z,101243.84
2023-05-12T08:11:09.482Z,101246.47
2023-05-12T08:13:42.235Z,101242.63
2023-05-12T08:16:15.595Z,101244.59
2023-05-12T08:18:48.574Z,101242.03
2023-05-12T08:21:20.513Z,101245.34
2023-05-12T08:23:53.835Z,101248.84
2023-05-12T08:26:25.893Z,101245.81
2023-05-12T08:28:57.691Z,101250.13
2023-05-12T08:31:31.012Z,101246.84
2023-05-12T08:34:10.253Z,101252.84
2023-05-12T08:36:43.952Z,101249.09
2023-05-12T08:39:16.413Z,101243.34
2023-05-12T08:41:59.109Z,101235.47
2023-05-12T08:44:33.746Z,101241.81
2023-05-12T08:47:07.646Z,101244.44
2023-05-12T08:49:43.721Z,101237.50
2023-05-12T08:52:21.534Z,101242.25
2023-05-12T08:54:56.616Z,101248.81
2023-05-12T08:57:29.753Z,101247.59
2023-05-12T09:00:05.309Z,101243.50
2023-05-12T09:02:51.273Z,101247.16
2023-05-12T09:05:27.865Z,101243.03
2023-05-12T09:08:04.046Z,101245.66
2023-05-12T09:10:37.703Z,101245.84
2023-05-12T09:13:21.570Z,101237.28
2023-05-12T09:15:56.543Z,101242.03
2023-05-12T09:18:45.829Z,101238.25
2023-05-12T09:21:19.859Z,101242.38
2023-05-12T09:24:05.853Z,101243.00
2023-05-12T09:26:49.588Z,101241.59
2023-05-12T09:29:31.846Z,101237.78
2023-05-12T09:32:08.140Z,101252.56
2023-05-12T09:34:41.758Z,101243.34
2023-05-12T09:37:15.640Z,101248.06
2023-05-12T09:39:47.181Z,101244.53
2023-05-12T09:42:18.847Z,101248.63
2023-05-12T09:44:51.843Z,101254.44
2023-05-12T09:47:23.737Z,101254.88
2023-05-12T09:49:57.648Z,101257.88
2023-05-12T09:52:32.855Z,101250.41
2023-05-12T09:55:13.606Z,101262.00
2023-05-12T09:57:47.718Z,101255.19
2023-05-12T10:00:38.552Z,101260.63
2023-05-12T10:03:17.736Z,101259.19
2023-05-12T10:05:54.535Z,101254.84
2023-05-12T10:08:35.184Z,101256.13
2023-05-12T10:11:08.332Z,101255.59
2023-05-12T10:13:41.432Z,101258.34
2023-05-12T10:16:13.576Z,101260.03
2023-05-12T10:18:47.305Z,101259.06
2023-05-12T10:21:20.365Z,101260.09
2023-05-12T10:23:55.170Z,101264.50
2023-05-12T10:26:27.298Z,101263.44
2023-05-12T10:29:00.551Z,101262.22
2023-05-12T10:31:35.041Z,101267.03
2023-05-12T10:34:07.866Z,101261.81
2023-05-12T10:36:47.246Z,101269.53
2023-05-12T10:39:20.771Z,101269.78
2023-05-12T10:42:01.504Z,101265.97
2023-05-12T10:44:33.482Z,101268.50
2023-05-12T10:47:13.234Z,101274.59
2023-05-12T10:49:46.374Z,101272.91
2023-05-12T10:52:22.503Z,101267.88
2023-05-12T10:55:04.595Z,101267.47
2023-05-12T10:57:49.871Z,101268.06
2023-05-12T11:00:28.948Z,101271.19
2023-05-12T11:03:09.918Z,101266.16
2023-05-12T11:05:42.664Z,101265.91
2023-05-12T11:08:15.526Z,101269.44
2023-05-12T11:10:49.249Z,101249.97
2023-05-12T11:13:21.979Z,101255.81
2023-05-12T11:15:54.920Z,101254.13
2023-05-12T11:18:27.650Z,101254.94
2023-05-12T11:20:59.515Z,101262.44
2023-05-12T11:23:32.405Z,101265.97
2023-05-12T11:26:07.290Z,101261.97
2023-05-12T11:28:45.502Z,101255.81
2023-05-12T11:31:24.719Z,101250.13
2023-05-12T11:34:12.804Z,101245.66
2023-05-12T11:36:47.237Z,101254.59
2023-05-12T11:39:20.776Z,101247.50
2023-05-12T11:42:05.440Z,101246.00
2023-05-12T11:44:37.710Z,101245.31
2023-05-12T11:47:18.726Z,101247.00
2023-05-12T11:49:54.564Z,101253.28
2023-05-12T11:52:28.565Z,101253.63
2023-05-12T11:55:05.974Z,101252.97
2023-05-12T11:57:39.654Z,101258.84
2023-05-12T12:00:15.546Z,101256.34
2023-05-12T12:02:47.551Z,101252.75
2023-05-12T12:05:22.690Z,101253.44
2023-05-12T12:08:04.877Z,101246.97
2023-05-12T12:10:38.070Z,101250.31
2023-05-12T12:13:11.068Z,101244.38
2023-05-12T12:15:42.952Z,101246.50
2023-05-12T12:18:15.719Z,101248.75
2023-05-12T12:20:48.807Z,101261.84
2023-05-12T12:23:20.793Z,101259.38
2023-05-12T12:25:52.636Z,101255.50
2023-05-12T12:28:25.700Z,101262.25
2023-05-12T12:30:57.396Z,101262.41
2023-05-12T12:33:29.243Z,101258.66
2023-05-12T12:36:01.057Z,101250.75
2023-05-12T12:38:33.138Z,101255.09
2023-05-12T12:41:05.125Z,101250.66
2023-05-12T12:43:38.386Z,101259.38
2023-05-12T12:46:10.050Z,101262.59
2023-05-12T12:48:42.283Z,101262.47
2023-05-12T12:51:15.313Z,101252.41
2023-05-12T12:53:47.230Z,101247.16
2023-05-12T12:56:19.486Z,101232.00
2023-05-12T12:58:52.522Z,101241.03
2023-05-12T13:01:24.562Z,101238.09
2023-05-12T13:03:56.416Z,101239.81
2023-05-12T13:06:29.192Z,101246.19
2023-05-12T13:09:01.548Z,101242.72
2023-05-12T13:11:33.270Z,101245.63
2023-05-12T13:14:06.882Z,101255.19
2023-05-12T13:16:38.953Z,101250.28
2023-05-12T13:19:11.197Z,101244.34
2023-05-12T13:21:43.591Z,101246.44
2023-05-12T13:24:15.369Z,101238.25
2023-05-12T13:26:47.081Z,101238.47
2023-05-12T13:29:20.417Z,101238.50
2023-05-12T13:31:52.307Z,101243.75
2023-05-12T13:34:23.999Z,101243.75
2023-05-12T13:36:55.860Z,101249.88
2023-05-12T13:39:27.699Z,101245.47
2023-05-12T13:41:59.859Z,101246.97
2023-05-12T13:44:33.275Z,101245.06
2023-05-12T13:47:10.834Z,101233.97
2023-05-12T13:49:42.654Z,101226.81
2023-05-12T13:52:14.897Z,101222.28
2023-05-12T13:54:47.203Z,101228.97
2023-05-12T13:57:18.984Z,101220.75
2023-05-12T13:59:54.902Z,101235.75
2023-05-12T14:02:27.063Z,101238.75
2023-05-12T14:04:59.825Z,101240.72
2023-05-12T14:07:32.131Z,101241.41
2023-05-12T14:10:08.141Z,101245.19
2023-05-12T14:12:41.232Z,101242.44
2023-05-12T14:15:26.561Z,101234.25
2023-05-12T14:18:04.886Z,101226.44
2023-05-12T14:20:37.016Z,101225.91
2023-05-12T14:23:09.085Z,101226.00
2023-05-12T14:25:41.170Z,101220.56
2023-05-12T14:28:13.379Z,101221.16
2023-05-12T14:30:48.691Z,101232.69
2023-05-12T14:33:20.632Z,101234.16
2023-05-12T14:36:03.212Z,101225.84
2023-05-12T14:38:39.419Z,101238.47
2023-05-12T14:41:11.546Z,101229.25
2023-05-12T14:43:43.613Z,101234.88
2023-05-12T14:46:17.582Z,101233.22
2023-05-12T14:48:49.860Z,101229.91
2023-05-12T14:51:21.970Z,101228.09
2023-05-12T14:53:54.291Z,101235.50
2023-05-12T14:56:26.465Z,101230.78
2023-05-12T14:58:58.667Z,101222.50
2023-05-12T15:01:32.170Z,101231.44
2023-05-12T15:04:04.498Z,101230.72
2023-05-12T15:06:38.110Z,101233.13
2023-05-12T15:09:10.912Z,101232.88
2023-05-12T15:11:44.515Z,101229.56
2023-05-12T15:14:16.374Z,101229.03
2023-05-12T15:16:49.444Z,101233.53
2023-05-12T15:19:21.606Z,101238.88
2023-05-12T15:21:53.561Z,101230.09
2023-05-12T15:24:25.583Z,101229.84
2023-05-12T15:26:57.276Z,101230.59
2023-05-12T15:29:29.165Z,101231.97
2023-05-12T15:32:03.856Z,101238.38
2023-05-12T15:34:35.760Z,101239.88
2023-05-12T15:37:07.702Z,101232.56
2023-05-12T15:39:39.590Z,101232.56
2023-05-12T15:42:12.627Z,101234.41
2023-05-12T15:44:46.667Z,101234.03
2023-05-12T15:47:19.906Z,101229.56
2023-05-12T15:49:53.421Z,101228.22
2023-05-12T15:52:25.232Z,101228.25
2023-05-12T15:54:57.288Z,101230.09
2023-05-12T15:57:29.201Z,101228.75
2023-05-12T16:00:05.382Z,101214.81
2023-05-12T16:02:38.812Z,101224.22
2023-05-12T16:05:12.230Z,101225.09
2023-05-12T16:07:44.148Z,101222.84
2023-05-12T16:10:15.918Z,101220.94
2023-05-12T16:12:47.993Z,101227.22
2023-05-12T16:15:20.268Z,101221.59
2023-05-12T16:17:53.916Z,101225.66
2023-05-12T16:20:26.025Z,101224.44
2023-05-12T16:22:58.249Z,101223.31
2023-05-12T16:25:29.913Z,101219.09
2023-05-12T16:28:01.872Z,101224.34
2023-05-12T16:30:33.991Z,101214.78
2023-05-12T16:33:08.100Z,101206.66
2023-05-12T16:35:39.925Z,101218.03
2023-05-12T16:38:11.675Z,101207.84
2023-05-12T16:40:43.663Z,101207.13
2023-05-12T16:43:15.770Z,101211.91
2023-05-12T16:45:48.129Z,101213.41
2023-05-12T16:48:21.422Z,101213.88
2023-05-12T16:51:03.430Z,101209.00
2023-05-12T16:53:35.389Z,101206.53
2023-05-12T16:56:07.372Z,101210.56
2023-05-12T16:58:40.642Z,101211.34
2023-05-12T17:01:12.871Z,101209.91
2023-05-12T17:03:46.107Z,101217.88
2023-05-12T17:06:17.912Z,101223.63
2023-05-12T17:08:49.945Z,101224.63
2023-05-12T17:11:21.883Z,101228.41
2023-05-12T17:13:54.010Z,101223.31
2023-05-12T17:16:25.702Z,101230.66
2023-05-12T17:21:33.905Z,101231.34
2023-05-12T17:24:06.002Z,101234.78
2023-05-12T17:26:37.812Z,101240.72
2023-05-12T17:29:09.695Z,101232.28
2023-05-12T17:31:42.192Z,101228.28
2023-05-12T17:34:15.543Z,101235.72
2023-05-12T17:36:47.297Z,101240.50
2023-05-12T17:39:19.369Z,101238.81
2023-05-12T17:41:51.124Z,101238.03
2023-05-12T17:44:23.049Z,101242.16
2023-05-12T17:46:58.862Z,101240.47
2023-05-12T17:49:32.312Z,101245.09
2023-05-12T17:52:04.334Z,101238.72
2023-05-12T17:54:36.470Z,101240.75
2023-05-12T17:57:08.934Z,101244.19
2023-05-12T17:59:40.860Z,101240.41
2023-05-12T18:02:13.352Z,101245.16
2023-05-12T18:04:46.834Z,101245.44
2023-05-12T18:07:18.461Z,101242.28
2023-05-12T18:09:50.489Z,101243.63
2023-05-12T18:12:23.306Z,101240.69
2023-05-12T18:14:55.301Z,101248.47
2023-05-12T18:17:27.694Z,101253.59
2023-05-12T18:20:01.012Z,101250.03
2023-05-12T18:22:32.992Z,101254.72
2023-05-12T18:25:05.132Z,101253.09
2023-05-12T18:27:37.090Z,101252.91
2023-05-12T18:30:10.901Z,101245.63
2023-05-12T18:32:43.456Z,101250.72
2023-05-12T18:35:17.428Z,101254.06
2023-05-12T18:37:49.524Z,101252.41
2023-05-12T18:40:21.875Z,101256.63
2023-05-12T18:42:53.575Z,101254.34
2023-05-12T18:45:25.569Z,101251.44
2023-05-12T18:47:57.301Z,101256.69
2023-05-12T18:50:30.927Z,101265.72
2023-05-12T18:53:02.818Z,101266.78
2023-05-12T18:55:34.853Z,101275.38
2023-05-12T18:58:06.643Z,101272.69
2023-05-12T19:00:38.763Z,101275.19
2023-05-12T19:03:10.607Z,101279.78
2023-05-12T19:05:46.291Z,101283.53
2023-05-12T19:08:19.874Z,101290.25
2023-05-12T19:10:53.041Z,101291.09
2023-05-12T19:13:25.094Z,101295.69
2023-05-12T19:15:57.109Z,101294.66
2023-05-12T19:18:29.146Z,101290.25
2023-05-12T19:21:02.570Z,101291.28
2023-05-12T19:23:35.553Z,101292.31
2023-05-12T19:26:08.959Z,101292.31
2023-05-12T19:28:40.985Z,101298.34
2023-05-12T19:31:13.020Z,101294.59
2023-05-12T19:33:44.924Z,101297.47
2023-05-12T19:36:18.186Z,101298.09
2023-05-12T19:38:50.120Z,101294.25
2023-05-12T19:41:22.085Z,101307.59
2023-05-12T19:43:53.936Z,101309.88
2023-05-12T19:46:26.328Z,101303.34
2023-05-12T19:48:58.406Z,101305.84
2023-05-12T19:51:31.984Z,101311.69
2023-05-12T19:54:06.255Z,101313.53
2023-05-12T19:56:38.252Z,101317.00
2023-05-12T19:59:10.131Z,101321.59
2023-05-12T20:01:42.239Z,101316.94
2023-05-12T20:04:14.114Z,101324.44
2023-05-12T20:06:48.200Z,101326.47
2023-05-12T20:09:21.925Z,101326.00
2023-05-12T20:11:53.777Z,101315.50
2023-05-12T20:14:25.537Z,101320.03
2023-05-12T20:16:59.015Z,101323.34
2023-05-12T20:19:31.282Z,101331.44
2023-05-12T20:22:04.377Z,101329.53
2023-05-12T20:24:36.333Z,101328.28
2023-05-12T20:27:08.734Z,101334.91
2023-05-12T20:29:40.346Z,101333.44
2023-05-12T20:32:14.355Z,101324.78
2023-05-12T20:34:46.176Z,101334.72
2023-05-12T20:37:19.133Z,101336.16
2023-05-12T20:39:50.986Z,101334.03
2023-05-12T20:42:23.935Z,101335.00
2023-05-12T20:44:55.859Z,101337.44
2023-05-12T20:47:27.893Z,101339.84
2023-05-12T20:50:05.171Z,101336.84
2023-05-12T20:52:40.061Z,101335.63
2023-05-12T20:55:13.251Z,101330.59
2023-05-12T20:57:45.169Z,101330.03
2023-05-12T21:00:19.542Z,101335.19
2023-05-12T21:02:52.275Z,101335.31
2023-05-12T21:05:24.407Z,101335.47
2023-05-12T21:07:57.359Z,101339.78
2023-05-12T21:10:29.262Z,101345.50
2023-05-12T21:13:01.061Z,101346.06
2023-05-12T21:15:34.270Z,101347.47
2023-05-12T21:18:06.228Z,101347.75
2023-05-12T21:20:37.924Z,101345.63
2023-05-12T21:23:12.445Z,101348.44
2023-05-12T21:25:44.480Z,101349.66
2023-05-12T21:28:16.340Z,101349.19
2023-05-12T21:30:48.151Z,101352.53
2023-05-12T21:33:20.086Z,101352.44
2023-05-12T21:35:52.803Z,101350.66
2023-05-12T21:38:26.597Z,101359.69
2023-05-12T21:40:58.417Z,101362.13
2023-05-12T21:43:30.291Z,101367.06
2023-05-12T21:46:06.792Z,101358.97
2023-05-12T21:48:39.203Z,101365.13
2023-05-12T21:51:10.849Z,101367.56
2023-05-12T21:53:43.865Z,101362.50
2023-05-12T21:56:15.816Z,101359.03
2023-05-12T21:58:48.031Z,101369.00
2023-05-12T22:01:20.186Z,101361.25
2023-05-12T22:03:52.032Z,101366.34
2023-05-12T22:06:23.598Z,101363.00
2023-05-12T22:08:56.585Z,101359.19
2023-05-12T22:11:29.004Z,101357.91
2023-05-12T22:14:01.065Z,101360.97
2023-05-12T22:16:41.136Z,101366.00
2023-05-12T22:19:13.779Z,101372.31
2023-05-12T22:21:45.654Z,101372.38
2023-05-12T22:24:18.661Z,101376.47
2023-05-12T22:26:50.487Z,101376.47
2023-05-12T22:29:22.550Z,101375.81
2023-05-12T22:31:54.309Z,101376.34
2023-05-12T22:34:26.147Z,101377.88
2023-05-12T22:36:58.011Z,101372.47
2023-05-12T22:39:31.128Z,101377.25
2023-05-12T22:42:03.254Z,101376.59
2023-05-12T22:44:35.374Z,101376.75
2023-05-12T22:47:07.460Z,101379.31
2023-05-12T22:49:39.655Z,101380.00
2023-05-12T22:52:11.659Z,101378.50
2023-05-12T22:54:44.875Z,101382.34
2023-05-12T22:57:16.709Z,101379.38
2023-05-12T22:59:48.757Z,101393.22
2023-05-12T23:02:20.530Z,101393.06
2023-05-12T23:04:52.466Z,101387.19
2023-05-12T23:07:24.355Z,101393.59
2023-05-12T23:09:57.623Z,101388.91
2023-05-12T23:12:29.416Z,101384.72
2023-05-12T23:15:01.282Z,101384.53
2023-05-12T23:17:33.260Z,101385.56
2023-05-12T23:20:05.565Z,101388.44
2023-05-12T23:22:37.131Z,101382.88
2023-05-12T23:25:12.406Z,101386.44
2023-05-12T23:27:44.283Z,101388.44
2023-05-12T23:30:17.078Z,101385.59
2023-05-12T23:32:50.270Z,101384.72
2023-05-12T23:35:22.480Z,101380.75
2023-05-12T23:37:54.076Z,101381.41
2023-05-12T23:40:27.189Z,101377.91
2023-05-12T23:42:59.004Z,101375.19
2023-05-12T23:45:30.871Z,101376.50
2023-05-12T23:48:02.963Z,101375.88
2023-05-12T23:50:35.572Z,101373.88
2023-05-12T23:53:07.145Z,101366.13
2023-05-12T23:55:41.897Z,101364.47
2023-05-12T23:58:13.761Z,101364.63
